Time;durP1;ratioP1;P1;durP2;ratioP2;P2;SDS_P1;SDS_P2;PMS_P1;PMS_P2;Temp;Humidity;BMP_temperature;BMP_pressure;BME280_temperature;BME280_humidity;BME280_pressure;Samples;Min_cycle;Max_cycle;Signal;HPM_P1;HPM_P2
2022/12/20 00:01:18;;;;;;;;;;;12.70;99.90;;;;;;6128449;23;19916;-77
2022/12/20 00:03:44;;;;;;;;;;;12.60;99.90;;;;;;6128352;23;19929;-77
2022/12/20 00:06:10;;;;;;;;;;;12.60;99.90;;;;;;6128176;23;20324;-76
2022/12/20 00:08:37;;;;;;;;;;;12.60;99.90;;;;;;6127910;23;19913;-77
2022/12/20 00:11:03;;;;;;;;;;;12.60;99.90;;;;;;6127983;23;19948;-77
2022/12/20 00:13:29;;;;;;;;;;;12.60;99.90;;;;;;6127937;23;19912;-77
2022/12/20 00:16:09;;;;;;;;;;;12.70;99.90;;;;;;6127836;23;20448;-77
2022/12/20 00:18:35;;;;;;;;;;;12.70;99.90;;;;;;6128121;23;19912;-77
2022/12/20 00:21:01;;;;;;;;;;;12.60;99.90;;;;;;6128061;23;19905;-78
2022/12/20 00:23:28;;;;;;;;;;;12.50;99.90;;;;;;6128074;23;19952;-77
2022/12/20 00:26:14;;;;;;;;;;;12.50;99.90;;;;;;6127838;23;19905;-77
2022/12/20 00:28:40;;;;;;;;;;;12.50;99.90;;;;;;6126948;23;19905;-77
2022/12/20 00:31:07;;;;;;;;;;;12.50;99.90;;;;;;6127696;23;19909;-76
2022/12/20 00:33:34;;;;;;;;;;;12.50;99.90;;;;;;6127767;23;19905;-77
2022/12/20 00:35:59;;;;;;;;;;;12.60;99.90;;;;;;6127635;23;19920;-77
2022/12/20 00:38:25;;;;;;;;;;;12.60;99.90;;;;;;6127791;23;19913;-77
2022/12/20 00:41:07;;;;;;;;;;;12.60;99.90;;;;;;6127753;23;19953;-77
2022/12/20 00:43:33;;;;;;;;;;;12.60;99.90;;;;;;6127559;23;19910;-77
2022/12/20 00:45:59;;;;;;;;;;;12.70;99.90;;;;;;6127763;23;19980;-78
2022/12/20 00:48:25;;;;;;;;;;;12.70;99.90;;;;;;6127689;23;20353;-77
2022/12/20 00:50:51;;;;;;;;;;;12.70;99.90;;;;;;6127479;23;19916;-78
2022/12/20 00:53:16;;;;;;;;;;;12.70;99.90;;;;;;6127584;23;19905;-77
2022/12/20 00:55:43;;;;;;;;;;;12.70;99.90;;;;;;6127297;23;19913;-76
2022/12/20 00:58:09;;;;;;;;;;;12.80;99.90;;;;;;6127745;23;19933;-77
2022/12/20 01:00:35;;;;;;;;;;;12.80;99.90;;;;;;6127920;23;20374;-78
2022/12/20 01:03:00;;;;;;;;;;;12.80;99.90;;;;;;6127582;23;19905;-77
2022/12/20 01:05:26;;;;;;;;;;;12.80;99.90;;;;;;6127486;23;19905;-78
2022/12/20 01:07:51;;;;;;;;;;;12.80;99.90;;;;;;6127399;23;20276;-76
2022/12/20 01:10:17;;;;;;;;;;;12.90;99.90;;;;;;6127986;23;19952;-77
2022/12/20 01:12:43;;;;;;;;;;;13.00;99.90;;;;;;6127398;23;19905;-77
2022/12/20 01:15:09;;;;;;;;;;;12.90;99.90;;;;;;6127376;23;19975;-77
2022/12/20 01:17:35;;;;;;;;;;;12.90;99.90;;;;;;6127438;23;20262;-76
2022/12/20 01:20:00;;;;;;;;;;;13.00;99.90;;;;;;6127341;23;19932;-77
2022/12/20 01:22:26;;;;;;;;;;;13.00;99.90;;;;;;6127264;23;19905;-77
2022/12/20 01:24:52;;;;;;;;;;;13.10;99.90;;;;;;6127148;23;20332;-78
2022/12/20 01:27:17;;;;;;;;;;;13.10;99.90;;;;;;6127071;23;19936;-77
2022/12/20 01:29:43;;;;;;;;;;;13.10;99.90;;;;;;6127492;23;19905;-77
2022/12/20 01:32:08;;;;;;;;;;;13.10;99.90;;;;;;6127011;23;19956;-77
2022/12/20 01:34:34;;;;;;;;;;;13.10;99.90;;;;;;6126631;23;19912;-78
2022/12/20 01:37:00;;;;;;;;;;;13.10;99.90;;;;;;6127239;23;20384;-77
2022/12/20 01:39:25;;;;;;;;;;;13.10;99.90;;;;;;6126950;23;19913;-77
2022/12/20 01:41:51;;;;;;;;;;;13.20;99.90;;;;;;6127145;23;19909;-77
2022/12/20 01:44:16;;;;;;;;;;;13.20;99.90;;;;;;6127130;23;19916;-77
2022/12/20 01:46:43;;;;;;;;;;;13.20;99.90;;;;;;6127142;23;19905;-78
2022/12/20 01:49:27;;;;;;;;;;;13.10;99.90;;;;;;6100841;23;19905;-77
2022/12/20 01:51:59;;;;;;;;;;;13.20;99.90;;;;;;6126885;23;19988;-77
2022/12/20 01:54:27;;;;;;;;;;;13.20;99.90;;;;;;6127145;23;19913;-77
2022/12/20 01:56:57;;;;;;;;;;;13.20;99.90;;;;;;6126396;23;19913;-77
2022/12/20 01:59:24;;;;;;;;;;;13.20;99.90;;;;;;6126859;23;19970;-78
2022/12/20 02:01:50;;;;;;;;;;;13.20;99.90;;;;;;6127266;23;19905;-78
2022/12/20 02:04:15;;;;;;;;;;;13.20;99.90;;;;;;6128894;23;19905;-76
2022/12/20 02:06:41;;;;;;;;;;;13.20;99.90;;;;;;6129200;23;19980;-78
2022/12/20 02:09:09;;;;;;;;;;;13.20;99.90;;;;;;6129023;23;19976;-77
2022/12/20 02:11:58;;;;;;;;;;;13.30;99.90;;;;;;6128733;23;19917;-78
2022/12/20 02:14:34;;;;;;;;;;;13.30;99.90;;;;;;6113133;23;19912;-77
2022/12/20 02:17:05;;;;;;;;;;;13.30;99.90;;;;;;6128892;23;19912;-78
2022/12/20 02:19:40;;;;;;;;;;;13.30;99.90;;;;;;6128746;23;19972;-78
2022/12/20 02:22:11;;;;;;;;;;;13.30;99.90;;;;;;6128954;23;19963;-77
2022/12/20 02:24:59;;;;;;;;;;;13.30;99.90;;;;;;6128772;23;20298;-76
2022/12/20 02:27:37;;;;;;;;;;;13.30;99.90;;;;;;6127525;23;20402;-78
2022/12/20 02:30:05;;;;;;;;;;;13.40;99.90;;;;;;6102643;23;19912;-78
2022/12/20 02:32:59;;;;;;;;;;;13.40;99.90;;;;;;6127565;23;19920;-78
2022/12/20 02:35:29;;;;;;;;;;;13.40;99.90;;;;;;6102957;23;19944;-78
2022/12/20 02:37:56;;;;;;;;;;;13.40;99.90;;;;;;6128842;23;19912;-78
2022/12/20 02:40:23;;;;;;;;;;;13.40;99.90;;;;;;6128701;23;20379;-78
2022/12/20 02:42:51;;;;;;;;;;;13.40;99.90;;;;;;6102553;23;19906;-77
2022/12/20 02:45:19;;;;;;;;;;;13.40;99.90;;;;;;6128513;23;19932;-77
2022/12/20 02:47:45;;;;;;;;;;;13.40;99.90;;;;;;6128690;23;20347;-77
2022/12/20 02:50:11;;;;;;;;;;;13.40;99.90;;;;;;6128727;23;19941;-78
2022/12/20 02:52:37;;;;;;;;;;;13.40;99.90;;;;;;6128342;23;19916;-79
2022/12/20 02:55:03;;;;;;;;;;;13.40;99.90;;;;;;6128151;23;19913;-78
2022/12/20 02:57:44;;;;;;;;;;;13.40;99.90;;;;;;6128895;23;20339;-78
2022/12/20 03:00:13;;;;;;;;;;;13.40;99.90;;;;;;6128509;23;19941;-78
2022/12/20 03:05:26;;;;;;;;;;;13.30;99.90;;;;;;6128069;23;19959;-78
2022/12/20 03:07:52;;;;;;;;;;;13.30;99.90;;;;;;6128289;23;19905;-78
2022/12/20 03:10:18;;;;;;;;;;;13.30;99.90;;;;;;6128292;23;19992;-77
2022/12/20 03:12:44;;;;;;;;;;;13.30;99.90;;;;;;6127848;23;19909;-78
2022/12/20 03:15:09;;;;;;;;;;;13.30;99.90;;;;;;6128209;23;19960;-78
2022/12/20 03:17:35;;;;;;;;;;;13.30;99.90;;;;;;6128169;23;19944;-79
2022/12/20 03:20:01;;;;;;;;;;;13.40;99.90;;;;;;6128223;23;19905;-78
2022/12/20 03:22:26;;;;;;;;;;;13.40;99.90;;;;;;6128151;23;19912;-78
2022/12/20 03:24:52;;;;;;;;;;;13.40;99.90;;;;;;6128229;23;19905;-77
2022/12/20 03:27:17;;;;;;;;;;;13.40;99.90;;;;;;6128079;23;20252;-77
2022/12/20 03:29:44;;;;;;;;;;;13.40;99.90;;;;;;6128281;23;19905;-78
2022/12/20 03:32:10;;;;;;;;;;;13.50;99.90;;;;;;6128103;23;20331;-77
2022/12/20 03:34:36;;;;;;;;;;;13.50;99.90;;;;;;6128158;23;19905;-77
2022/12/20 03:37:02;;;;;;;;;;;13.50;99.90;;;;;;6127983;23;20280;-78
2022/12/20 03:39:27;;;;;;;;;;;13.50;99.90;;;;;;6128057;23;19912;-78
2022/12/20 03:41:53;;;;;;;;;;;13.50;99.90;;;;;;6127921;23;19983;-79
2022/12/20 03:44:19;;;;;;;;;;;13.50;99.90;;;;;;6128116;23;20407;-77
2022/12/20 03:46:44;;;;;;;;;;;13.50;99.90;;;;;;6128342;23;19905;-78
2022/12/20 03:49:10;;;;;;;;;;;13.50;99.90;;;;;;6127887;23;20229;-77
2022/12/20 03:51:36;;;;;;;;;;;13.50;99.90;;;;;;6127793;23;19909;-78
2022/12/20 03:54:01;;;;;;;;;;;13.50;99.90;;;;;;6127868;23;20240;-77
2022/12/20 03:56:27;;;;;;;;;;;13.60;99.90;;;;;;6127601;23;19913;-77
2022/12/20 03:58:52;;;;;;;;;;;13.60;99.90;;;;;;6127838;23;19952;-77
2022/12/20 04:01:25;;;;;;;;;;;13.60;99.90;;;;;;6127827;23;19905;-77
2022/12/20 04:03:51;;;;;;;;;;;13.60;99.90;;;;;;6127725;23;20272;-77
2022/12/20 04:06:17;;;;;;;;;;;13.60;99.90;;;;;;6127876;23;19940;-78
2022/12/20 04:08:43;;;;;;;;;;;13.60;99.90;;;;;;6127924;23;19949;-79
2022/12/20 04:11:15;;;;;;;;;;;13.60;99.90;;;;;;6128554;23;20383;-77
2022/12/20 04:13:42;;;;;;;;;;;13.60;99.90;;;;;;6127906;23;19984;-77
2022/12/20 04:16:07;;;;;;;;;;;13.70;99.90;;;;;;6127729;23;19984;-76
2022/12/20 04:18:33;;;;;;;;;;;13.70;99.90;;;;;;6101677;23;19912;-76
2022/12/20 04:20:59;;;;;;;;;;;13.70;99.90;;;;;;6127646;23;19905;-77
2022/12/20 04:23:25;;;;;;;;;;;13.70;99.90;;;;;;6127581;23;20311;-77
2022/12/20 04:25:50;;;;;;;;;;;13.70;99.90;;;;;;6127657;23;19920;-77
2022/12/20 04:28:16;;;;;;;;;;;13.70;99.90;;;;;;6127569;23;19909;-78
2022/12/20 04:30:41;;;;;;;;;;;13.80;99.90;;;;;;6127567;23;19988;-78
2022/12/20 04:33:07;;;;;;;;;;;13.70;99.90;;;;;;6127548;23;19928;-76
2022/12/20 04:35:33;;;;;;;;;;;13.60;99.90;;;;;;6127521;23;19909;-77
2022/12/20 04:37:58;;;;;;;;;;;13.60;99.90;;;;;;6127470;23;19955;-77
2022/12/20 04:40:24;;;;;;;;;;;13.60;99.90;;;;;;6127390;23;19984;-77
2022/12/20 04:42:49;;;;;;;;;;;13.60;99.90;;;;;;6127624;23;19905;-77
2022/12/20 04:45:15;;;;;;;;;;;13.50;99.90;;;;;;6127390;23;19916;-77
2022/12/20 04:47:41;;;;;;;;;;;13.50;99.90;;;;;;6127442;23;19985;-79
2022/12/20 04:50:06;;;;;;;;;;;13.50;99.90;;;;;;6127273;23;19912;-79
2022/12/20 04:55:17;;;;;;;;;;;13.40;99.90;;;;;;6126848;23;19995;-79
2022/12/20 04:57:43;;;;;;;;;;;13.30;99.90;;;;;;6127366;23;19932;-77
2022/12/20 05:00:08;;;;;;;;;;;13.30;99.90;;;;;;6128153;23;19905;-77
2022/12/20 05:02:34;;;;;;;;;;;13.20;99.90;;;;;;6127282;23;19979;-78
2022/12/20 05:05:00;;;;;;;;;;;13.20;99.90;;;;;;6127685;23;19906;-78
2022/12/20 05:07:25;;;;;;;;;;;13.20;99.90;;;;;;6127970;23;19909;-76
2022/12/20 05:09:51;;;;;;;;;;;13.10;99.90;;;;;;6127638;23;19905;-78
2022/12/20 05:12:16;;;;;;;;;;;13.10;99.90;;;;;;6127195;23;19952;-78
2022/12/20 05:14:42;;;;;;;;;;;13.00;99.90;;;;;;6127937;23;19908;-77
2022/12/20 05:17:08;;;;;;;;;;;13.00;99.90;;;;;;6127070;23;19905;-80
2022/12/20 05:19:34;;;;;;;;;;;13.00;99.90;;;;;;6127631;23;20216;-78
2022/12/20 05:27:44;;;;;;;;;;;13.10;99.90;;;;;;6121987;23;19911;-76
2022/12/20 05:30:10;;;;;;;;;;;13.10;99.90;;;;;;6127292;23;19936;-77
2022/12/20 05:32:35;;;;;;;;;;;13.10;99.90;;;;;;6126899;23;19916;-78
2022/12/20 05:35:01;;;;;;;;;;;13.10;99.90;;;;;;6127153;23;19960;-78
2022/12/20 05:37:26;;;;;;;;;;;13.10;99.90;;;;;;6127934;23;19939;-77
2022/12/20 05:39:52;;;;;;;;;;;13.10;99.90;;;;;;6127926;23;19987;-76
2022/12/20 05:42:17;;;;;;;;;;;13.10;99.90;;;;;;6127466;23;19905;-79
2022/12/20 05:44:43;;;;;;;;;;;13.10;99.90;;;;;;6127112;23;19905;-78
2022/12/20 05:47:09;;;;;;;;;;;13.10;99.90;;;;;;6127428;23;19983;-75
2022/12/20 05:49:34;;;;;;;;;;;13.10;99.90;;;;;;6127728;23;19955;-76
2022/12/20 05:52:01;;;;;;;;;;;13.10;99.90;;;;;;6126989;23;19916;-76
2022/12/20 05:54:26;;;;;;;;;;;13.10;99.90;;;;;;6127091;23;20247;-78
2022/12/20 05:56:52;;;;;;;;;;;13.20;99.90;;;;;;6126500;23;19913;-78
2022/12/20 05:59:17;;;;;;;;;;;13.10;99.90;;;;;;6127182;23;19912;-76
2022/12/20 06:01:43;;;;;;;;;;;13.10;99.90;;;;;;6127363;23;19905;-77
2022/12/20 06:04:09;;;;;;;;;;;13.10;99.90;;;;;;6127311;23;20236;-77
2022/12/20 06:06:34;;;;;;;;;;;13.20;99.90;;;;;;6127587;23;19909;-77
2022/12/20 06:09:00;;;;;;;;;;;13.20;99.90;;;;;;6127231;23;20314;-78
2022/12/20 06:11:25;;;;;;;;;;;13.20;99.90;;;;;;6128170;23;19948;-79
2022/12/20 06:13:51;;;;;;;;;;;13.20;99.90;;;;;;6127738;23;19934;-78
2022/12/20 06:16:19;;;;;;;;;;;13.20;99.90;;;;;;6128757;23;20324;-78
2022/12/20 06:18:45;;;;;;;;;;;13.20;99.90;;;;;;6127986;23;19912;-76
2022/12/20 06:21:10;;;;;;;;;;;13.20;99.90;;;;;;6128108;23;20240;-77
2022/12/20 06:23:36;;;;;;;;;;;13.20;99.90;;;;;;6127622;23;19920;-76
2022/12/20 06:26:03;;;;;;;;;;;13.20;99.90;;;;;;6128095;23;19905;-77
2022/12/20 06:28:29;;;;;;;;;;;13.20;99.90;;;;;;6127372;23;20355;-75
2022/12/20 06:30:55;;;;;;;;;;;13.20;99.90;;;;;;6127115;23;19909;-75
2022/12/20 06:33:20;;;;;;;;;;;13.20;99.90;;;;;;6128018;23;19905;-76
2022/12/20 06:35:48;;;;;;;;;;;13.20;99.90;;;;;;6102232;23;20386;-76
2022/12/20 06:38:13;;;;;;;;;;;13.20;99.90;;;;;;6127781;23;19905;-77
2022/12/20 06:40:39;;;;;;;;;;;13.20;99.90;;;;;;6127306;23;20418;-77
2022/12/20 06:43:04;;;;;;;;;;;13.20;99.90;;;;;;6127622;23;19905;-79
2022/12/20 06:45:30;;;;;;;;;;;13.20;99.90;;;;;;6127835;23;19936;-76
2022/12/20 06:47:56;;;;;;;;;;;13.20;99.90;;;;;;6128553;23;19909;-76
2022/12/20 06:50:22;;;;;;;;;;;13.20;99.90;;;;;;6129619;23;19909;-77
2022/12/20 06:52:47;;;;;;;;;;;13.20;99.90;;;;;;6129523;23;19905;-78
2022/12/20 06:55:13;;;;;;;;;;;13.30;99.90;;;;;;6129411;23;19913;-76
2022/12/20 06:57:38;;;;;;;;;;;13.30;99.90;;;;;;6129127;23;19912;-77
2022/12/20 07:00:05;;;;;;;;;;;13.30;99.90;;;;;;6129835;23;19905;-77
2022/12/20 07:02:30;;;;;;;;;;;13.30;99.90;;;;;;6128607;23;19905;-76
2022/12/20 07:04:56;;;;;;;;;;;13.30;99.90;;;;;;6128632;23;19912;-76
2022/12/20 07:07:22;;;;;;;;;;;13.30;99.90;;;;;;6128672;23;19987;-75
2022/12/20 07:09:47;;;;;;;;;;;13.30;99.90;;;;;;6128629;23;19905;-78
2022/12/20 07:12:13;;;;;;;;;;;13.30;99.90;;;;;;6128607;23;19995;-77
2022/12/20 07:14:38;;;;;;;;;;;13.30;99.90;;;;;;6128872;23;19905;-78
2022/12/20 07:17:04;;;;;;;;;;;13.30;99.90;;;;;;6128518;23;20225;-77
2022/12/20 07:19:30;;;;;;;;;;;13.30;99.90;;;;;;6129328;23;20329;-78
2022/12/20 07:21:55;;;;;;;;;;;13.30;99.90;;;;;;6128545;23;19916;-76
2022/12/20 07:24:21;;;;;;;;;;;13.30;99.90;;;;;;6128790;23;20272;-77
2022/12/20 07:26:47;;;;;;;;;;;13.20;99.90;;;;;;6129271;23;19959;-77
2022/12/20 07:29:13;;;;;;;;;;;13.20;99.90;;;;;;6128948;23;19956;-79
2022/12/20 07:31:38;;;;;;;;;;;13.20;99.90;;;;;;6128532;23;20304;-77
2022/12/20 07:34:04;;;;;;;;;;;13.20;99.90;;;;;;6128827;23;19912;-76
2022/12/20 07:36:29;;;;;;;;;;;13.30;99.90;;;;;;6129565;23;20379;-77
2022/12/20 07:38:55;;;;;;;;;;;13.20;99.90;;;;;;6129756;23;19916;-77
2022/12/20 07:41:21;;;;;;;;;;;13.20;99.90;;;;;;6130661;23;20244;-77
2022/12/20 07:43:46;;;;;;;;;;;13.20;99.90;;;;;;6131972;23;19965;-78
2022/12/20 07:46:13;;;;;;;;;;;13.20;99.90;;;;;;6132075;23;20344;-75
2022/12/20 07:48:38;;;;;;;;;;;13.20;99.90;;;;;;6131444;23;20343;-77
2022/12/20 07:51:09;;;;;;;;;;;13.20;99.90;;;;;;6132172;23;19909;-78
2022/12/20 07:53:37;;;;;;;;;;;13.20;99.90;;;;;;6130516;23;19964;-76
2022/12/20 07:56:03;;;;;;;;;;;13.20;99.90;;;;;;6129233;23;20343;-76
2022/12/20 07:58:30;;;;;;;;;;;13.20;99.90;;;;;;6128837;23;19905;-79
2022/12/20 08:00:56;;;;;;;;;;;13.20;99.90;;;;;;6129494;23;19989;-77
2022/12/20 08:03:31;;;;;;;;;;;13.10;99.90;;;;;;6131093;23;19912;-77
2022/12/20 08:05:59;;;;;;;;;;;13.10;99.90;;;;;;6130612;23;19933;-77
2022/12/20 08:08:24;;;;;;;;;;;13.10;99.90;;;;;;6130023;23;19912;-76
2022/12/20 08:10:50;;;;;;;;;;;13.10;99.90;;;;;;6130294;23;19917;-77
2022/12/20 08:13:16;;;;;;;;;;;13.10;99.90;;;;;;6131339;23;19952;-77
2022/12/20 08:15:42;;;;;;;;;;;13.10;99.90;;;;;;6132032;23;19905;-75
2022/12/20 08:18:08;;;;;;;;;;;13.10;99.90;;;;;;6130604;23;19905;-76
2022/12/20 08:20:33;;;;;;;;;;;13.00;99.90;;;;;;6132537;23;20036;-77
2022/12/20 08:23:01;;;;;;;;;;;13.00;99.90;;;;;;6131074;23;19905;-76
2022/12/20 08:25:27;;;;;;;;;;;13.00;99.90;;;;;;6131579;23;19905;-77
2022/12/20 08:27:52;;;;;;;;;;;13.00;99.90;;;;;;6132288;23;19928;-75
2022/12/20 08:30:18;;;;;;;;;;;13.00;99.90;;;;;;6129970;23;19933;-77
2022/12/20 08:32:44;;;;;;;;;;;13.00;99.90;;;;;;6129169;23;19960;-76
2022/12/20 08:35:09;;;;;;;;;;;13.00;99.90;;;;;;6103653;23;19912;-76
2022/12/20 08:37:35;;;;;;;;;;;13.00;99.90;;;;;;6130377;23;19968;-76
2022/12/20 08:40:01;;;;;;;;;;;13.00;99.90;;;;;;6129671;23;19953;-77
2022/12/20 08:42:27;;;;;;;;;;;13.00;99.90;;;;;;6131985;23;19905;-77
2022/12/20 08:44:52;;;;;;;;;;;13.00;99.90;;;;;;6130584;23;19992;-77
2022/12/20 08:47:18;;;;;;;;;;;13.00;99.90;;;;;;6132228;23;19913;-78
2022/12/20 08:49:43;;;;;;;;;;;13.00;99.90;;;;;;6133024;23;19905;-76
2022/12/20 08:52:09;;;;;;;;;;;13.10;99.90;;;;;;6132770;23;19909;-77
2022/12/20 08:54:35;;;;;;;;;;;13.10;99.90;;;;;;6132147;23;20251;-77
2022/12/20 08:57:00;;;;;;;;;;;13.10;99.90;;;;;;6132852;23;20278;-76
2022/12/20 08:59:26;;;;;;;;;;;13.20;99.90;;;;;;6131165;23;19908;-76
2022/12/20 09:01:53;;;;;;;;;;;13.20;99.90;;;;;;6131822;23;19912;-76
2022/12/20 09:04:19;;;;;;;;;;;13.20;99.90;;;;;;6131831;23;19905;-77
2022/12/20 09:06:45;;;;;;;;;;;13.20;99.90;;;;;;6105174;23;20407;-77
2022/12/20 09:09:10;;;;;;;;;;;13.20;99.90;;;;;;6131632;23;19905;-77
2022/12/20 09:11:36;;;;;;;;;;;13.20;99.90;;;;;;6132066;23;20244;-77
2022/12/20 09:14:01;;;;;;;;;;;13.20;99.90;;;;;;6131156;23;19904;-77
2022/12/20 09:16:29;;;;;;;;;;;13.20;99.90;;;;;;6131515;23;20239;-76
2022/12/20 09:18:56;;;;;;;;;;;13.20;99.90;;;;;;6131323;23;19905;-76
2022/12/20 09:21:21;;;;;;;;;;;13.10;99.90;;;;;;6106114;23;19912;-75
2022/12/20 09:23:50;;;;;;;;;;;13.10;99.90;;;;;;6131467;23;19909;-77
2022/12/20 09:26:17;;;;;;;;;;;13.10;99.90;;;;;;6130314;23;19912;-76
2022/12/20 09:28:43;;;;;;;;;;;13.20;99.90;;;;;;6130417;23;19952;-76
2022/12/20 09:31:16;;;;;;;;;;;13.10;99.90;;;;;;6129724;23;19916;-77
2022/12/20 09:33:42;;;;;;;;;;;13.10;99.90;;;;;;6129385;23;19905;-77
2022/12/20 09:36:11;;;;;;;;;;;13.10;99.90;;;;;;6129948;23;19993;-76
2022/12/20 09:38:37;;;;;;;;;;;13.10;99.90;;;;;;6129172;23;20248;-76
2022/12/20 09:41:03;;;;;;;;;;;13.10;99.90;;;;;;6130088;23;19909;-77
2022/12/20 09:43:30;;;;;;;;;;;13.10;99.90;;;;;;6130679;23;19905;-75
2022/12/20 09:46:00;;;;;;;;;;;13.00;99.90;;;;;;6130007;23;19909;-75
2022/12/20 09:48:25;;;;;;;;;;;13.00;99.90;;;;;;6130326;23;19909;-76
2022/12/20 09:50:51;;;;;;;;;;;13.00;99.90;;;;;;6129975;23;19931;-77
2022/12/20 09:53:25;;;;;;;;;;;13.00;99.90;;;;;;6128468;23;19905;-77
2022/12/20 09:55:58;;;;;;;;;;;12.90;99.90;;;;;;6128244;23;19936;-77
2022/12/20 09:58:41;;;;;;;;;;;12.90;99.90;;;;;;6129438;23;19928;-75
2022/12/20 10:01:14;;;;;;;;;;;12.90;99.90;;;;;;6129964;23;19927;-77
2022/12/20 10:03:39;;;;;;;;;;;12.90;99.90;;;;;;6128050;23;19905;-78
2022/12/20 10:06:12;;;;;;;;;;;12.90;99.90;;;;;;6131147;23;19908;-77
2022/12/20 10:08:47;;;;;;;;;;;12.90;99.90;;;;;;6129544;23;19909;-77
2022/12/20 10:11:36;;;;;;;;;;;12.90;99.90;;;;;;6128336;23;20299;-77
2022/12/20 10:14:19;;;;;;;;;;;13.00;99.90;;;;;;6128216;23;19905;-78
2022/12/20 10:16:45;;;;;;;;;;;13.00;99.90;;;;;;6129055;23;19905;-78
2022/12/20 10:19:29;;;;;;;;;;;12.90;99.90;;;;;;6128481;23;20387;-79
2022/12/20 10:22:01;;;;;;;;;;;12.90;99.90;;;;;;6128579;23;20244;-77
2022/12/20 10:24:31;;;;;;;;;;;12.90;99.90;;;;;;6130517;23;19955;-78
2022/12/20 10:27:01;;;;;;;;;;;12.90;99.90;;;;;;6130714;23;19909;-76
2022/12/20 10:29:28;;;;;;;;;;;12.90;99.90;;;;;;6131643;23;19974;-76
2022/12/20 10:31:57;;;;;;;;;;;13.00;99.90;;;;;;6106906;23;19916;-76
2022/12/20 10:34:23;;;;;;;;;;;12.90;99.90;;;;;;6133345;23;19905;-78
2022/12/20 10:37:07;;;;;;;;;;;12.90;99.90;;;;;;6132266;23;19928;-78
2022/12/20 10:39:39;;;;;;;;;;;13.00;99.90;;;;;;6132748;23;19941;-76
2022/12/20 10:42:20;;;;;;;;;;;12.90;99.90;;;;;;6132690;23;19905;-77
2022/12/20 10:44:47;;;;;;;;;;;12.90;99.90;;;;;;6131586;23;20003;-76
2022/12/20 10:47:33;;;;;;;;;;;12.90;99.90;;;;;;6130769;23;19905;-77
2022/12/20 10:50:09;;;;;;;;;;;13.00;99.90;;;;;;6130077;23;19905;-77
2022/12/20 10:52:36;;;;;;;;;;;12.80;99.90;;;;;;6130866;23;19915;-76
2022/12/20 10:55:02;;;;;;;;;;;12.80;99.90;;;;;;6131171;23;19909;-76
2022/12/20 10:57:30;;;;;;;;;;;12.90;99.90;;;;;;6130160;23;19955;-77
2022/12/20 11:00:00;;;;;;;;;;;12.90;99.90;;;;;;6103519;23;20266;-76
2022/12/20 11:02:26;;;;;;;;;;;12.90;99.90;;;;;;6129186;23;19909;-75
2022/12/20 11:05:18;;;;;;;;;;;13.00;99.90;;;;;;6129145;23;20331;-77
2022/12/20 11:07:52;;;;;;;;;;;12.90;99.90;;;;;;6123182;23;19956;-76
2022/12/20 11:10:22;;;;;;;;;;;13.00;99.90;;;;;;6128386;23;19972;-75
2022/12/20 11:12:53;;;;;;;;;;;13.00;99.90;;;;;;6128534;23;19908;-76
2022/12/20 11:15:22;;;;;;;;;;;12.90;99.90;;;;;;6128498;23;19911;-77
2022/12/20 11:17:50;;;;;;;;;;;12.90;99.90;;;;;;6102318;23;19987;-77
2022/12/20 11:20:25;;;;;;;;;;;13.00;99.90;;;;;;6128355;23;19909;-76
2022/12/20 11:22:55;;;;;;;;;;;12.90;99.90;;;;;;6128282;23;20035;-75
2022/12/20 11:25:36;;;;;;;;;;;13.00;99.90;;;;;;6128199;23;19941;-77
2022/12/20 11:28:11;;;;;;;;;;;12.90;99.90;;;;;;6128522;23;19905;-76
2022/12/20 11:31:03;;;;;;;;;;;12.50;99.90;;;;;;6128043;23;20032;-77
2022/12/20 11:33:44;;;;;;;;;;;12.50;99.90;;;;;;6121830;23;19932;-75
2022/12/20 11:36:28;;;;;;;;;;;12.40;99.90;;;;;;6128310;23;20323;-76
2022/12/20 11:39:13;;;;;;;;;;;12.50;99.90;;;;;;6128031;23;20028;-77
2022/12/20 11:41:41;;;;;;;;;;;12.40;99.90;;;;;;6128180;23;19908;-77
2022/12/20 11:44:13;;;;;;;;;;;12.30;99.90;;;;;;6127273;23;19929;-77
2022/12/20 11:46:45;;;;;;;;;;;12.20;99.90;;;;;;6121020;23;19905;-77
2022/12/20 11:49:14;;;;;;;;;;;12.00;99.90;;;;;;6123210;23;20324;-76
2022/12/20 11:51:44;;;;;;;;;;;12.00;99.90;;;;;;6127862;23;20247;-77
2022/12/20 11:54:14;;;;;;;;;;;11.90;99.90;;;;;;6127821;23;19905;-76
2022/12/20 11:56:41;;;;;;;;;;;12.00;99.90;;;;;;6127374;23;20295;-76
2022/12/20 11:59:10;;;;;;;;;;;12.20;99.90;;;;;;6127969;23;19905;-76
2022/12/20 12:01:56;;;;;;;;;;;12.20;99.90;;;;;;6127811;23;19917;-77
2022/12/20 12:04:25;;;;;;;;;;;12.20;99.90;;;;;;6127185;23;19912;-76
2022/12/20 12:06:55;;;;;;;;;;;12.30;99.90;;;;;;6127563;23;19905;-76
2022/12/20 12:09:29;;;;;;;;;;;12.20;99.90;;;;;;6125228;23;19953;-76
2022/12/20 12:12:04;;;;;;;;;;;12.20;99.90;;;;;;6121749;23;19948;-76
2022/12/20 12:14:44;;;;;;;;;;;12.10;99.90;;;;;;6125342;23;19905;-77
2022/12/20 12:17:17;;;;;;;;;;;12.10;99.90;;;;;;6127629;23;20336;-76
2022/12/20 12:19:45;;;;;;;;;;;12.10;99.90;;;;;;6127873;23;19904;-77
2022/12/20 12:22:16;;;;;;;;;;;12.30;99.90;;;;;;6127598;23;19912;-76
2022/12/20 12:24:44;;;;;;;;;;;12.20;99.90;;;;;;6127628;23;20319;-76
2022/12/20 12:27:23;;;;;;;;;;;12.20;99.90;;;;;;6127626;23;19905;-77
2022/12/20 12:29:49;;;;;;;;;;;12.20;99.90;;;;;;6127493;23;19911;-77
2022/12/20 12:32:23;;;;;;;;;;;12.20;99.90;;;;;;6127340;23;19909;-75
2022/12/20 12:35:02;;;;;;;;;;;12.20;99.90;;;;;;6127591;23;19905;-76
2022/12/20 12:37:40;;;;;;;;;;;12.10;99.90;;;;;;6127477;23;19909;-76
2022/12/20 12:40:09;;;;;;;;;;;12.20;99.90;;;;;;6127535;23;19968;-76
2022/12/20 12:42:52;;;;;;;;;;;12.20;99.90;;;;;;6127790;23;19912;-76
2022/12/20 12:45:37;;;;;;;;;;;12.30;99.90;;;;;;6127416;23;19905;-77
2022/12/20 12:48:02;;;;;;;;;;;12.40;99.90;;;;;;6101589;23;19912;-78
2022/12/20 12:50:30;;;;;;;;;;;12.50;99.90;;;;;;6127836;23;20320;-76
2022/12/20 12:53:02;;;;;;;;;;;12.60;99.90;;;;;;6127133;23;20347;-77
2022/12/20 12:55:37;;;;;;;;;;;12.50;99.90;;;;;;6126811;23;20391;-77
2022/12/20 12:58:13;;;;;;;;;;;12.50;99.90;;;;;;6126711;23;19983;-76
2022/12/20 13:00:54;;;;;;;;;;;12.70;99.90;;;;;;6127361;23;19905;-75
2022/12/20 13:03:34;;;;;;;;;;;12.60;99.90;;;;;;6126722;23;20268;-75
2022/12/20 13:06:18;;;;;;;;;;;12.60;99.90;;;;;;6127614;23;19912;-76
2022/12/20 13:08:48;;;;;;;;;;;12.50;99.90;;;;;;6127445;23;19909;-76
2022/12/20 13:11:27;;;;;;;;;;;12.50;99.90;;;;;;6127384;23;19912;-76
2022/12/20 13:14:13;;;;;;;;;;;12.50;99.90;;;;;;6127431;23;19963;-75
2022/12/20 13:16:40;;;;;;;;;;;12.60;99.90;;;;;;6067939;23;19905;-77
2022/12/20 13:19:12;;;;;;;;;;;12.60;99.90;;;;;;6101265;23;20340;-76
2022/12/20 13:21:38;;;;;;;;;;;12.50;99.90;;;;;;6127507;23;19905;-77
2022/12/20 13:24:23;;;;;;;;;;;12.60;99.90;;;;;;6127863;23;19905;-76
2022/12/20 13:26:50;;;;;;;;;;;12.60;99.90;;;;;;6128081;23;19905;-76
2022/12/20 13:29:42;;;;;;;;;;;12.60;99.90;;;;;;6127220;23;19909;-77
2022/12/20 13:32:27;;;;;;;;;;;13.00;99.90;;;;;;6082331;23;19909;-75
2022/12/20 13:34:54;;;;;;;;;;;13.10;99.90;;;;;;6127179;23;20331;-76
2022/12/20 13:37:24;;;;;;;;;;;13.20;99.90;;;;;;6127259;23;19905;-75
2022/12/20 13:39:50;;;;;;;;;;;13.40;99.90;;;;;;6127279;23;20017;-76
2022/12/20 13:42:21;;;;;;;;;;;13.20;99.90;;;;;;6127555;23;20316;-75
2022/12/20 13:44:47;;;;;;;;;;;12.90;99.90;;;;;;6127791;23;20339;-76
2022/12/20 13:47:25;;;;;;;;;;;12.70;99.90;;;;;;6127327;23;19905;-76
2022/12/20 13:49:51;;;;;;;;;;;12.60;99.90;;;;;;6127205;23;20350;-75
2022/12/20 13:52:21;;;;;;;;;;;12.40;99.90;;;;;;6127649;23;19996;-76
2022/12/20 13:54:47;;;;;;;;;;;12.50;99.90;;;;;;6127289;23;19948;-76
2022/12/20 13:57:17;;;;;;;;;;;12.30;99.90;;;;;;6127218;23;19908;-76
2022/12/20 13:59:47;;;;;;;;;;;12.30;99.90;;;;;;6127947;23;19928;-76
2022/12/20 14:02:18;;;;;;;;;;;12.30;99.90;;;;;;6127321;23;19987;-76
2022/12/20 14:04:45;;;;;;;;;;;12.30;99.90;;;;;;6127205;23;19956;-76
2022/12/20 14:07:15;;;;;;;;;;;12.20;99.90;;;;;;6127452;23;19912;-76
2022/12/20 14:09:43;;;;;;;;;;;12.30;99.90;;;;;;6127373;23;19912;-77
2022/12/20 14:12:13;;;;;;;;;;;12.20;99.90;;;;;;6127689;23;19913;-76
2022/12/20 14:14:43;;;;;;;;;;;12.20;99.90;;;;;;6127459;23;19905;-75
2022/12/20 14:17:14;;;;;;;;;;;12.20;99.90;;;;;;6127496;23;19905;-75
2022/12/20 14:19:40;;;;;;;;;;;12.10;99.90;;;;;;6127634;23;19905;-76
2022/12/20 14:22:06;;;;;;;;;;;12.10;99.90;;;;;;6128205;23;20319;-77
2022/12/20 14:24:32;;;;;;;;;;;;;;;;;;6127787;23;19905;-76
2022/12/20 14:26:59;;;;;;;;;;;12.30;99.90;;;;;;6128922;23;19920;-75
2022/12/20 14:29:29;;;;;;;;;;;12.20;99.90;;;;;;6129907;23;19905;-77
2022/12/20 14:31:56;;;;;;;;;;;12.50;99.90;;;;;;6130437;23;19908;-76
2022/12/20 14:34:29;;;;;;;;;;;12.50;99.90;;;;;;6131607;23;19912;-76
2022/12/20 14:37:13;;;;;;;;;;;12.50;99.90;;;;;;6132359;23;19905;-76
2022/12/20 14:39:52;;;;;;;;;;;12.70;99.90;;;;;;6131896;23;19905;-77